OSSERVATORIO METEOROLOGICO COMUNALE "E. Torricelli" - Faenza (Italia)

Latitudine: 44° 17' 44.97" N - Longitudine: 11° 52' 33.27" E - Altitudine: 36 m s.l.m.

21 settembre 2017

Temperatura
(°C)
Umidità
(%)
Pressione
(hPa)
Velocità vento
(km/h)
Pioggia Rad. Sol.
(W/m2)
Max Min Med Max Min Med Max Min Max Orario Dir.
Med.
Totale
(mm)
Intensità
(mm/h)
Max
22,3 10,3 16,0 83 26 59 1016 1014 21 13:17 190 - - 733

Orario Temperatura
(°C)
Umidità
(%)
Pressione
(hPa)
Velocità vento
(km/h)
Dir. vento
(°)
Pioggia
(mm)
Rad. Sol.
(W/m2)
0:00 11,6 81 1014,5 4 188 - -
0:15 11,8 82 1014,6 6 173 - -
0:30 12,3 77 1014,6 11 198 - -
0:45 12,0 76 1014,7 5 220 - -
1:00 12,1 77 1014,8 6 168 - -
1:15 11,9 77 1014,9 2 215 - -
1:30 11,9 76 1014,9 6 200 - -
1:45 12,0 74 1015,0 8 208 - -
2:00 11,9 73 1014,9 11 215 - -
2:15 11,9 72 1014,8 13 238 - -
2:30 11,8 71 1014,8 7 233 - -
2:45 11,5 72 1014,9 4 233 - -
3:00 11,2 72 1015,0 4 220 - -
3:15 11,0 74 1015,1 0 - - -
3:30 10,7 77 1015,1 4 233 - -
3:45 10,6 78 1015,1 6 218 - -
4:00 10,5 78 1015,0 6 203 - -
4:15 10,5 78 1015,0 3 230 - -
4:30 10,4 79 1015,0 4 200 - -
4:45 10,6 77 1014,9 6 230 - -
5:00 10,6 77 1015,0 4 210 - -
5:15 10,7 76 1015,0 7 198 - -
5:30 10,6 76 1015,1 7 208 - -
5:45 10,6 76 1015,1 7 233 - -
6:00 10,5 77 1015,2 4 220 - 1,6
6:15 10,4 78 1015,4 4 190 - 10,8
6:30 10,6 78 1015,3 4 253 - 20,9
6:45 10,7 78 1015,3 4 218 - 59,4
7:00 11,0 77 1015,3 3 175 - 39,1
7:15 11,4 77 1015,3 4 238 - 45,1
7:30 11,9 76 1015,4 4 195 - 51,3
7:45 12,8 73 1015,5 1 145 - 257,2
8:00 13,5 70 1015,6 6 163 - 304,6
8:15 14,0 68 1015,7 2 160 - 350,4
8:30 14,8 67 1015,8 2 328 - 390,4
8:45 15,5 64 1015,9 4 300 - 435,8
9:00 16,2 60 1016,0 4 240 - 477,6
9:15 16,9 57 1016,0 4 30 - 512,2
9:30 17,1 55 1016,1 4 228 - 547,3
9:45 17,7 52 1016,1 0 - - 577,8
10:00 18,5 49 1016,1 4 5 - 604,1
10:15 19,0 51 1016,2 6 30 - 633,2
10:30 19,2 50 1016,2 3 253 - 481,0
10:45 19,1 50 1016,2 7 23 - 671,4
11:00 20,1 53 1016,2 4 298 - 691,8
11:15 20,5 47 1016,2 7 95 - 703,9
11:30 19,8 45 1016,2 9 13 - 715,4
11:45 20,5 45 1016,0 8 328 - 726,4
12:00 21,3 45 1015,9 12 3 - 725,6
12:15 21,5 42 1015,8 8 358 - 727,2
12:30 21,6 45 1015,7 5 53 - 724,8
12:45 22,0 46 1015,7 3 348 - 713,2
13:00 22,0 47 1015,6 9 28 - 702,2
13:15 22,1 45 1015,5 8 353 - 694,9
13:30 21,8 43 1015,5 9 3 - 676,0
13:45 21,9 43 1015,3 2 350 - 524,7
14:00 21,8 41 1015,3 4 18 - 633,1
14:15 21,9 38 1015,2 6 68 - 602,0
14:30 21,7 34 1015,2 8 5 - 563,0
14:45 22,0 38 1015,0 8 275 - 532,5
15:00 22,1 33 1015,0 7 43 - 499,5
15:15 22,1 35 1014,9 2 328 - 88,3
15:30 22,0 33 1014,9 4 275 - 277,5
15:45 22,1 29 1014,8 6 340 - 370,2
16:00 22,0 29 1014,8 3 35 - 321,3
16:15 22,0 31 1014,7 8 3 - 278,5
16:30 21,9 32 1014,7 0 - - 231,2
16:45 21,5 33 1014,8 1 320 - 184,8
17:00 21,2 35 1014,8 1 73 - 120,2
17:15 20,4 37 1014,8 1 25 - 33,4
17:30 19,8 40 1014,8 3 3 - 23,8
17:45 19,3 41 1014,8 0 - - 12,5
18:00 18,8 44 1014,8 0 - - 1,2
18:15 18,3 44 1014,9 0 - - -
18:30 17,8 48 1015,0 4 180 - -
18:45 17,4 51 1015,2 3 195 - -
19:00 17,3 56 1015,3 4 235 - -
19:15 17,0 61 1015,4 6 188 - -
19:30 16,6 63 1015,4 4 203 - -
19:45 16,1 63 1015,5 8 263 - -
20:00 15,9 64 1015,6 6 225 - -
20:15 15,6 65 1015,6 10 230 - -
20:30 15,5 65 1015,5 6 248 - -
20:45 15,3 66 1015,5 6 243 - -
21:00 15,0 67 1015,5 11 228 - -
21:15 14,8 67 1015,5 4 155 - -
21:30 14,6 68 1015,6 4 203 - -
21:45 14,3 69 1015,6 6 205 - -
22:00 14,1 68 1015,6 6 205 - -
22:15 14,3 65 1015,6 11 245 - -
22:30 14,3 62 1015,7 4 275 - -
22:45 14,2 60 1015,6 12 200 - -
23:00 14,3 59 1015,8 9 228 - -
23:15 14,4 57 1015,8 5 243 - -
23:30 14,2 58 1015,9 2 215 - -
23:45 13,9 60 1015,9 7 193 - -
24:00 - - - - - - -